sensor_id;sensor_type;location;lat;lon;timestamp;pressure;altitude;pressure_sealevel;temperature;humidity
42601;BME280;28229;48.856;9.088;2023-02-23T00:01:24;97613.38;;;7.52;87.26
42601;BME280;28229;48.856;9.088;2023-02-23T00:03:54;97613.38;;;7.52;87.36
42601;BME280;28229;48.856;9.088;2023-02-23T00:06:22;97611.75;;;7.51;87.24
42601;BME280;28229;48.856;9.088;2023-02-23T00:08:48;97614.16;;;7.53;87.22
42601;BME280;28229;48.856;9.088;2023-02-23T00:11:15;97610.75;;;7.52;87.58
42601;BME280;28229;48.856;9.088;2023-02-23T00:13:43;97607.09;;;7.47;88.13
42601;BME280;28229;48.856;9.088;2023-02-23T00:16:13;97603.28;;;7.49;87.94
42601;BME280;28229;48.856;9.088;2023-02-23T00:18:45;97606.50;;;7.51;87.81
42601;BME280;28229;48.856;9.088;2023-02-23T00:21:15;97606.09;;;7.54;88.16
42601;BME280;28229;48.856;9.088;2023-02-23T00:24:10;97605.31;;;7.47;88.63
42601;BME280;28229;48.856;9.088;2023-02-23T00:27:02;97603.28;;;7.56;88.95
42601;BME280;28229;48.856;9.088;2023-02-23T00:32:49;97608.47;;;7.62;90.09
42601;BME280;28229;48.856;9.088;2023-02-23T00:35:23;97606.09;;;7.54;90.73
42601;BME280;28229;48.856;9.088;2023-02-23T00:37:50;97600.47;;;7.44;91.47
42601;BME280;28229;48.856;9.088;2023-02-23T00:40:16;97600.69;;;7.49;91.87
42601;BME280;28229;48.856;9.088;2023-02-23T00:42:46;97599.06;;;7.48;92.61
42601;BME280;28229;48.856;9.088;2023-02-23T00:48:33;97595.06;;;7.46;93.24
42601;BME280;28229;48.856;9.088;2023-02-23T00:51:04;97596.88;;;7.38;94.25
42601;BME280;28229;48.856;9.088;2023-02-23T00:53:31;97595.28;;;7.24;95.34
42601;BME280;28229;48.856;9.088;2023-02-23T00:56:03;97597.09;;;7.30;95.38
42601;BME280;28229;48.856;9.088;2023-02-23T00:58:30;97597.72;;;7.26;96.34
42601;BME280;28229;48.856;9.088;2023-02-23T01:00:57;97586.41;;;7.32;96.61
42601;BME280;28229;48.856;9.088;2023-02-23T01:04:11;97592.66;;;7.31;96.90
42601;BME280;28229;48.856;9.088;2023-02-23T01:06:38;97584.41;;;7.34;97.76
42601;BME280;28229;48.856;9.088;2023-02-23T01:09:09;97590.03;;;7.31;98.29
42601;BME280;28229;48.856;9.088;2023-02-23T01:11:38;97584.59;;;7.32;98.73
42601;BME280;28229;48.856;9.088;2023-02-23T01:14:17;97588.84;;;7.27;99.30
42601;BME280;28229;48.856;9.088;2023-02-23T01:17:08;97586.81;;;7.29;99.73
42601;BME280;28229;48.856;9.088;2023-02-23T01:19:36;97581.19;;;7.25;99.89
42601;BME280;28229;48.856;9.088;2023-02-23T01:22:31;97585.81;;;7.30;100.00
42601;BME280;28229;48.856;9.088;2023-02-23T01:24:58;97592.84;;;7.36;100.00
42601;BME280;28229;48.856;9.088;2023-02-23T01:27:24;97588.03;;;7.33;100.00
42601;BME280;28229;48.856;9.088;2023-02-23T01:29:50;97591.06;;;7.36;100.00
42601;BME280;28229;48.856;9.088;2023-02-23T01:32:19;97592.25;;;7.34;100.00
42601;BME280;28229;48.856;9.088;2023-02-23T01:34:45;97591.84;;;7.37;100.00
42601;BME280;28229;48.856;9.088;2023-02-23T01:37:12;97590.41;;;7.41;100.00
42601;BME280;28229;48.856;9.088;2023-02-23T01:39:38;97588.00;;;7.39;100.00
42601;BME280;28229;48.856;9.088;2023-02-23T01:42:10;97593.22;;;7.46;100.00
42601;BME280;28229;48.856;9.088;2023-02-23T01:47:04;97580.34;;;7.38;100.00
42601;BME280;28229;48.856;9.088;2023-02-23T01:49:32;97582.56;;;7.41;100.00
42601;BME280;28229;48.856;9.088;2023-02-23T01:52:18;97580.97;;;7.40;100.00
42601;BME280;28229;48.856;9.088;2023-02-23T01:54:53;97577.94;;;7.43;100.00
42601;BME280;28229;48.856;9.088;2023-02-23T01:57:21;97577.34;;;7.41;100.00
42601;BME280;28229;48.856;9.088;2023-02-23T01:59:50;97579.75;;;7.49;100.00
42601;BME280;28229;48.856;9.088;2023-02-23T02:06:09;97569.84;;;7.51;100.00
42601;BME280;28229;48.856;9.088;2023-02-23T02:08:42;97568.69;;;7.47;100.00
42601;BME280;28229;48.856;9.088;2023-02-23T02:11:12;97564.63;;;7.51;100.00
42601;BME280;28229;48.856;9.088;2023-02-23T02:14:15;97564.22;;;7.54;100.00
42601;BME280;28229;48.856;9.088;2023-02-23T02:16:55;97570.25;;;7.48;100.00
42601;BME280;28229;48.856;9.088;2023-02-23T02:22:43;97558.22;;;7.47;100.00
42601;BME280;28229;48.856;9.088;2023-02-23T02:44:54;97557.78;;;7.50;100.00
42601;BME280;28229;48.856;9.088;2023-02-23T02:50:22;97549.50;;;7.53;100.00
42601;BME280;28229;48.856;9.088;2023-02-23T02:53:09;97548.91;;;7.58;100.00
42601;BME280;28229;48.856;9.088;2023-02-23T02:55:57;97554.94;;;7.58;100.00
42601;BME280;28229;48.856;9.088;2023-02-23T03:02:36;97541.84;;;7.58;100.00
42601;BME280;28229;48.856;9.088;2023-02-23T03:05:29;97549.09;;;7.56;100.00
42601;BME280;28229;48.856;9.088;2023-02-23T03:09:11;97541.28;;;7.50;100.00
42601;BME280;28229;48.856;9.088;2023-02-23T03:11:38;97541.47;;;7.55;100.00
42601;BME280;28229;48.856;9.088;2023-02-23T03:14:58;97537.41;;;7.59;100.00
42601;BME280;28229;48.856;9.088;2023-02-23T03:22:12;97542.31;;;7.49;100.00
42601;BME280;28229;48.856;9.088;2023-02-23T03:32:48;97551.97;;;7.41;100.00
42601;BME280;28229;48.856;9.088;2023-02-23T03:38:52;97557.81;;;7.37;100.00
42601;BME280;28229;48.856;9.088;2023-02-23T03:41:40;97559.41;;;7.38;100.00
42601;BME280;28229;48.856;9.088;2023-02-23T03:48:05;97555.00;;;7.32;100.00
42601;BME280;28229;48.856;9.088;2023-02-23T03:51:31;97548.16;;;7.37;100.00
42601;BME280;28229;48.856;9.088;2023-02-23T03:54:27;97553.00;;;7.34;100.00
42601;BME280;28229;48.856;9.088;2023-02-23T03:57:20;97559.03;;;7.34;100.00
42601;BME280;28229;48.856;9.088;2023-02-23T04:00:18;97558.22;;;7.34;100.00
42601;BME280;28229;48.856;9.088;2023-02-23T04:03:07;97550.56;;;7.39;100.00
42601;BME280;28229;48.856;9.088;2023-02-23T04:05:57;97550.56;;;7.39;100.00
42601;BME280;28229;48.856;9.088;2023-02-23T04:08:46;97554.41;;;7.30;100.00
42601;BME280;28229;48.856;9.088;2023-02-23T04:11:42;97553.84;;;7.28;100.00
42601;BME280;28229;48.856;9.088;2023-02-23T04:14:36;97559.47;;;7.31;100.00
42601;BME280;28229;48.856;9.088;2023-02-23T04:17:05;97554.22;;;7.31;100.00
42601;BME280;28229;48.856;9.088;2023-02-23T04:19:32;97560.25;;;7.32;100.00
42601;BME280;28229;48.856;9.088;2023-02-23T04:21:59;97561.88;;;7.33;100.00
42601;BME280;28229;48.856;9.088;2023-02-23T04:24:25;97557.44;;;7.33;100.00
42601;BME280;28229;48.856;9.088;2023-02-23T04:27:03;97561.03;;;7.32;100.00
42601;BME280;28229;48.856;9.088;2023-02-23T04:29:29;97556.63;;;7.33;100.00
42601;BME280;28229;48.856;9.088;2023-02-23T04:32:16;97561.25;;;7.31;100.00
42601;BME280;28229;48.856;9.088;2023-02-23T04:34:43;97563.47;;;7.34;100.00
42601;BME280;28229;48.856;9.088;2023-02-23T04:37:12;97561.03;;;7.32;100.00
42601;BME280;28229;48.856;9.088;2023-02-23T04:39:38;97563.06;;;7.30;100.00
42601;BME280;28229;48.856;9.088;2023-02-23T04:42:05;97562.03;;;7.38;100.00
42601;BME280;28229;48.856;9.088;2023-02-23T04:44:31;97568.09;;;7.32;100.00
42601;BME280;28229;48.856;9.088;2023-02-23T04:46:57;97564.28;;;7.28;100.00
42601;BME280;28229;48.856;9.088;2023-02-23T04:49:23;97566.09;;;7.27;100.00
42601;BME280;28229;48.856;9.088;2023-02-23T04:51:52;97567.50;;;7.30;100.00
42601;BME280;28229;48.856;9.088;2023-02-23T04:54:19;97560.47;;;7.23;100.00
42601;BME280;28229;48.856;9.088;2023-02-23T04:56:54;97564.69;;;7.24;100.00
42601;BME280;28229;48.856;9.088;2023-02-23T04:59:20;97563.91;;;7.24;100.00
42601;BME280;28229;48.856;9.088;2023-02-23T05:01:55;97558.28;;;7.20;100.00
42601;BME280;28229;48.856;9.088;2023-02-23T05:04:21;97562.47;;;7.21;100.00
42601;BME280;28229;48.856;9.088;2023-02-23T05:06:48;97564.69;;;7.24;100.00
42601;BME280;28229;48.856;9.088;2023-02-23T05:09:14;97566.72;;;7.22;100.00
42601;BME280;28229;48.856;9.088;2023-02-23T05:11:40;97569.78;;;7.06;100.00
42601;BME280;28229;48.856;9.088;2023-02-23T05:14:06;97565.94;;;7.15;100.00
42601;BME280;28229;48.856;9.088;2023-02-23T05:16:32;97565.94;;;7.15;100.00
42601;BME280;28229;48.856;9.088;2023-02-23T05:18:58;97563.72;;;7.19;100.00
42601;BME280;28229;48.856;9.088;2023-02-23T05:21:24;97562.72;;;7.13;100.00
42601;BME280;28229;48.856;9.088;2023-02-23T05:23:51;97560.28;;;7.18;100.00
42601;BME280;28229;48.856;9.088;2023-02-23T05:26:17;97563.72;;;7.12;100.00
42601;BME280;28229;48.856;9.088;2023-02-23T05:28:43;97564.91;;;7.16;100.00
42601;BME280;28229;48.856;9.088;2023-02-23T05:31:13;97564.31;;;7.14;100.00
42601;BME280;28229;48.856;9.088;2023-02-23T05:33:40;97560.69;;;7.15;100.00
42601;BME280;28229;48.856;9.088;2023-02-23T05:36:14;97566.13;;;7.20;100.00
42601;BME280;28229;48.856;9.088;2023-02-23T05:38:44;97572.34;;;7.19;100.00
42601;BME280;28229;48.856;9.088;2023-02-23T05:41:16;97573.53;;;7.23;100.00
42601;BME280;28229;48.856;9.088;2023-02-23T05:43:43;97571.75;;;7.24;100.00
42601;BME280;28229;48.856;9.088;2023-02-23T05:46:17;97568.31;;;7.23;100.00
42601;BME280;28229;48.856;9.088;2023-02-23T05:48:45;97561.88;;;7.26;100.00
42601;BME280;28229;48.856;9.088;2023-02-23T05:51:13;97566.06;;;7.34;100.00
42601;BME280;28229;48.856;9.088;2023-02-23T05:53:42;97568.09;;;7.32;100.00
42601;BME280;28229;48.856;9.088;2023-02-23T05:56:11;97571.31;;;7.27;100.00
42601;BME280;28229;48.856;9.088;2023-02-23T05:58:38;97569.53;;;7.28;100.00
42601;BME280;28229;48.856;9.088;2023-02-23T06:01:05;97572.34;;;7.33;100.00
42601;BME280;28229;48.856;9.088;2023-02-23T06:03:31;97565.88;;;7.29;100.00
42601;BME280;28229;48.856;9.088;2023-02-23T06:05:57;97568.69;;;7.34;100.00
42601;BME280;28229;48.856;9.088;2023-02-23T06:08:24;97565.47;;;7.38;100.00
42601;BME280;28229;48.856;9.088;2023-02-23T06:10:51;97564.50;;;7.33;100.00
42601;BME280;28229;48.856;9.088;2023-02-23T06:13:18;97571.31;;;7.34;100.00
42601;BME280;28229;48.856;9.088;2023-02-23T06:15:44;97572.34;;;7.33;100.00
42601;BME280;28229;48.856;9.088;2023-02-23T06:18:11;97575.56;;;7.28;100.00
42601;BME280;28229;48.856;9.088;2023-02-23T06:20:42;97577.19;;;7.22;100.00
42601;BME280;28229;48.856;9.088;2023-02-23T06:23:08;97584.63;;;7.19;100.00
42601;BME280;28229;48.856;9.088;2023-02-23T06:25:35;97574.97;;;7.19;100.00
42601;BME280;28229;48.856;9.088;2023-02-23T06:28:01;97586.06;;;7.15;100.00
42601;BME280;28229;48.856;9.088;2023-02-23T06:30:27;97589.66;;;7.20;100.00
42601;BME280;28229;48.856;9.088;2023-02-23T06:32:53;97577.19;;;7.22;100.00
42601;BME280;28229;48.856;9.088;2023-02-23T06:35:22;97581.19;;;7.25;100.00
42601;BME280;28229;48.856;9.088;2023-02-23T06:37:49;97585.19;;;7.34;100.00
42601;BME280;28229;48.856;9.088;2023-02-23T06:43:13;97582.00;;;7.26;100.00
42601;BME280;28229;48.856;9.088;2023-02-23T06:46:08;97592.06;;;7.29;100.00
42601;BME280;28229;48.856;9.088;2023-02-23T06:48:53;97593.88;;;7.35;100.00
42601;BME280;28229;48.856;9.088;2023-02-23T06:51:26;97590.84;;;7.31;100.00
42601;BME280;28229;48.856;9.088;2023-02-23T06:54:28;97603.75;;;7.33;100.00
42601;BME280;28229;48.856;9.088;2023-02-23T06:57:09;97604.88;;;7.50;100.00
42601;BME280;28229;48.856;9.088;2023-02-23T06:59:41;97606.84;;;7.75;100.00
42601;BME280;28229;48.856;9.088;2023-02-23T07:02:11;97610.00;;;7.97;100.00
42601;BME280;28229;48.856;9.088;2023-02-23T07:04:38;97613.50;;;8.16;100.00
42601;BME280;28229;48.856;9.088;2023-02-23T07:07:04;97616.34;;;8.14;100.00
42601;BME280;28229;48.856;9.088;2023-02-23T07:09:30;97616.38;;;8.08;100.00
42601;BME280;28229;48.856;9.088;2023-02-23T07:11:56;97617.59;;;8.05;100.00
42601;BME280;28229;48.856;9.088;2023-02-23T07:14:23;97618.00;;;8.02;100.00
42601;BME280;28229;48.856;9.088;2023-02-23T07:16:49;97625.31;;;7.93;100.00
42601;BME280;28229;48.856;9.088;2023-02-23T07:19:17;97625.72;;;7.90;100.00
42601;BME280;28229;48.856;9.088;2023-02-23T07:22:18;97627.16;;;7.86;100.00
42601;BME280;28229;48.856;9.088;2023-02-23T07:25:19;97627.56;;;7.90;100.00
42601;BME280;28229;48.856;9.088;2023-02-23T07:27:50;97631.75;;;7.91;100.00
42601;BME280;28229;48.856;9.088;2023-02-23T07:30:40;97628.94;;;7.86;100.00
42601;BME280;28229;48.856;9.088;2023-02-23T07:33:36;97633.00;;;7.81;100.00
42601;BME280;28229;48.856;9.088;2023-02-23T07:36:02;97634.25;;;7.79;100.00
42601;BME280;28229;48.856;9.088;2023-02-23T07:38:28;97637.63;;;7.86;100.00
42601;BME280;28229;48.856;9.088;2023-02-23T07:40:57;97631.38;;;7.80;100.00
42601;BME280;28229;48.856;9.088;2023-02-23T07:43:29;97634.41;;;7.84;100.00
42601;BME280;28229;48.856;9.088;2023-02-23T07:45:59;97636.59;;;7.87;100.00
42601;BME280;28229;48.856;9.088;2023-02-23T07:48:26;97639.22;;;7.87;100.00
42601;BME280;28229;48.856;9.088;2023-02-23T07:53:45;97639.63;;;7.84;100.00
42601;BME280;28229;48.856;9.088;2023-02-23T07:57:12;97638.22;;;7.88;100.00
42601;BME280;28229;48.856;9.088;2023-02-23T08:08:10;97643.03;;;7.91;100.00
42601;BME280;28229;48.856;9.088;2023-02-23T08:10:38;97649.47;;;7.95;100.00
42601;BME280;28229;48.856;9.088;2023-02-23T08:13:09;97644.25;;;7.95;100.00
42601;BME280;28229;48.856;9.088;2023-02-23T08:15:38;97647.88;;;7.88;100.00
42601;BME280;28229;48.856;9.088;2023-02-23T08:18:07;97642.03;;;7.99;100.00
42601;BME280;28229;48.856;9.088;2023-02-23T08:20:34;97644.94;;;8.16;100.00
42601;BME280;28229;48.856;9.088;2023-02-23T08:23:02;97647.66;;;8.41;100.00
42601;BME280;28229;48.856;9.088;2023-02-23T08:25:31;97646.66;;;8.81;100.00
42601;BME280;28229;48.856;9.088;2023-02-23T08:27:57;97658.34;;;9.10;100.00
42601;BME280;28229;48.856;9.088;2023-02-23T08:30:33;97648.84;;;9.34;100.00
42601;BME280;28229;48.856;9.088;2023-02-23T08:33:01;97653.66;;;9.37;100.00
42601;BME280;28229;48.856;9.088;2023-02-23T08:35:27;97649.44;;;9.36;99.53
42601;BME280;28229;48.856;9.088;2023-02-23T08:37:57;97652.81;;;9.62;97.10
42601;BME280;28229;48.856;9.088;2023-02-23T08:52:50;97662.44;;;9.49;98.58
42601;BME280;28229;48.856;9.088;2023-02-23T08:55:57;97659.06;;;9.42;98.09
42601;BME280;28229;48.856;9.088;2023-02-23T08:58:36;97656.72;;;9.34;98.25
42601;BME280;28229;48.856;9.088;2023-02-23T09:04:00;97663.38;;;9.37;99.40
42601;BME280;28229;48.856;9.088;2023-02-23T09:06:44;97660.00;;;9.48;100.00
42601;BME280;28229;48.856;9.088;2023-02-23T09:09:16;97663.22;;;9.50;99.02
42601;BME280;28229;48.856;9.088;2023-02-23T09:11:43;97666.09;;;9.48;99.66
42601;BME280;28229;48.856;9.088;2023-02-23T09:14:09;97668.41;;;9.57;99.37
42601;BME280;28229;48.856;9.088;2023-02-23T09:16:38;97670.19;;;9.63;98.94
42601;BME280;28229;48.856;9.088;2023-02-23T09:19:16;97672.88;;;9.75;99.17
42601;BME280;28229;48.856;9.088;2023-02-23T09:21:47;97668.16;;;9.83;98.26
42601;BME280;28229;48.856;9.088;2023-02-23T09:24:19;97668.88;;;9.90;95.18
42601;BME280;28229;48.856;9.088;2023-02-23T09:26:51;97675.44;;;10.00;94.98
42601;BME280;28229;48.856;9.088;2023-02-23T09:29:26;97674.59;;;10.06;94.70
42601;BME280;28229;48.856;9.088;2023-02-23T09:32:14;97666.31;;;10.21;95.62
42601;BME280;28229;48.856;9.088;2023-02-23T09:34:41;97660.81;;;10.41;93.85
42601;BME280;28229;48.856;9.088;2023-02-23T09:37:07;97661.81;;;10.58;91.56
42601;BME280;28229;48.856;9.088;2023-02-23T09:39:33;97664.94;;;10.67;89.23
42601;BME280;28229;48.856;9.088;2023-02-23T09:42:19;97663.94;;;10.80;88.11
42601;BME280;28229;48.856;9.088;2023-02-23T09:45:27;97663.50;;;10.83;88.54
42601;BME280;28229;48.856;9.088;2023-02-23T09:48:04;97657.44;;;10.94;88.16
42601;BME280;28229;48.856;9.088;2023-02-23T10:05:34;97653.84;;;12.18;80.62
42601;BME280;28229;48.856;9.088;2023-02-23T10:08:06;97664.56;;;12.41;81.73
42601;BME280;28229;48.856;9.088;2023-02-23T10:32:10;97660.63;;;13.90;71.48
42601;BME280;28229;48.856;9.088;2023-02-23T10:35:24;97655.38;;;13.96;69.88
42601;BME280;28229;48.856;9.088;2023-02-23T10:38:43;97662.25;;;13.97;67.12
42601;BME280;28229;48.856;9.088;2023-02-23T10:41:19;97661.16;;;13.93;67.28
42601;BME280;28229;48.856;9.088;2023-02-23T10:44:14;97662.13;;;13.86;67.96
42601;BME280;28229;48.856;9.088;2023-02-23T10:51:06;97665.16;;;13.95;69.44
42601;BME280;28229;48.856;9.088;2023-02-23T10:53:48;97664.66;;;13.98;66.72
42601;BME280;28229;48.856;9.088;2023-02-23T10:56:25;97666.53;;;13.98;66.94
42601;BME280;28229;48.856;9.088;2023-02-23T10:58:59;97666.59;;;14.03;66.33
42601;BME280;28229;48.856;9.088;2023-02-23T11:01:35;97661.00;;;13.99;65.96
42601;BME280;28229;48.856;9.088;2023-02-23T11:04:27;97660.41;;;13.97;66.06
42601;BME280;28229;48.856;9.088;2023-02-23T11:07:13;97660.38;;;13.92;66.49
42601;BME280;28229;48.856;9.088;2023-02-23T11:09:44;97656.03;;;13.86;65.75
42601;BME280;28229;48.856;9.088;2023-02-23T11:12:21;97661.47;;;13.57;66.02
42601;BME280;28229;48.856;9.088;2023-02-23T11:14:52;97658.03;;;13.57;67.05
42601;BME280;28229;48.856;9.088;2023-02-23T11:17:54;97659.94;;;13.61;65.22
42601;BME280;28229;48.856;9.088;2023-02-23T11:23:25;97648.25;;;13.57;64.61
42601;BME280;28229;48.856;9.088;2023-02-23T11:26:40;97649.38;;;13.61;64.87
42601;BME280;28229;48.856;9.088;2023-02-23T11:29:28;97635.88;;;13.80;65.01
42601;BME280;28229;48.856;9.088;2023-02-23T11:31:59;97638.13;;;14.15;64.38
42601;BME280;28229;48.856;9.088;2023-02-23T11:34:37;97641.25;;;14.34;63.30
42601;BME280;28229;48.856;9.088;2023-02-23T11:37:20;97631.38;;;14.52;64.83
42601;BME280;28229;48.856;9.088;2023-02-23T11:39:57;97628.88;;;14.62;63.74
42601;BME280;28229;48.856;9.088;2023-02-23T11:46:17;97624.88;;;14.92;62.05
42601;BME280;28229;48.856;9.088;2023-02-23T11:48:52;97622.66;;;15.11;60.67
42601;BME280;28229;48.856;9.088;2023-02-23T11:51:27;97618.69;;;15.13;60.00
42601;BME280;28229;48.856;9.088;2023-02-23T11:53:54;97621.78;;;15.00;59.11
42601;BME280;28229;48.856;9.088;2023-02-23T11:56:24;97612.13;;;14.83;59.59
42601;BME280;28229;48.856;9.088;2023-02-23T11:58:58;97612.91;;;14.84;61.31
42601;BME280;28229;48.856;9.088;2023-02-23T12:01:36;97615.50;;;14.79;63.18
42601;BME280;28229;48.856;9.088;2023-02-23T12:04:25;97611.00;;;14.79;64.35
42601;BME280;28229;48.856;9.088;2023-02-23T12:07:26;97602.53;;;14.77;63.68
42601;BME280;28229;48.856;9.088;2023-02-23T12:13:25;97610.13;;;14.69;63.15
42601;BME280;28229;48.856;9.088;2023-02-23T12:18:32;97606.34;;;14.59;63.83
42601;BME280;28229;48.856;9.088;2023-02-23T12:21:12;97601.22;;;14.53;64.10
42601;BME280;28229;48.856;9.088;2023-02-23T12:23:43;97599.09;;;14.50;64.19
42601;BME280;28229;48.856;9.088;2023-02-23T12:26:19;97601.13;;;14.42;64.41
42601;BME280;28229;48.856;9.088;2023-02-23T12:28:55;97609.50;;;14.34;63.90
42601;BME280;28229;48.856;9.088;2023-02-23T12:31:35;97602.59;;;14.28;63.94
42601;BME280;28229;48.856;9.088;2023-02-23T12:34:13;97604.03;;;14.14;65.93
42601;BME280;28229;48.856;9.088;2023-02-23T12:39:45;97602.81;;;13.99;66.79
42601;BME280;28229;48.856;9.088;2023-02-23T12:42:25;97598.84;;;14.02;66.56
42601;BME280;28229;48.856;9.088;2023-02-23T12:44:59;97602.81;;;13.99;66.17
42601;BME280;28229;48.856;9.088;2023-02-23T12:50:27;97589.38;;;14.06;65.90
42601;BME280;28229;48.856;9.088;2023-02-23T12:53:03;97591.16;;;14.00;65.20
42601;BME280;28229;48.856;9.088;2023-02-23T12:55:43;97590.78;;;13.92;66.33
42601;BME280;28229;48.856;9.088;2023-02-23T13:01:09;97593.06;;;13.83;68.05
42601;BME280;28229;48.856;9.088;2023-02-23T13:03:53;97587.53;;;13.84;67.48
42601;BME280;28229;48.856;9.088;2023-02-23T13:12:30;97584.22;;;13.50;66.82
42601;BME280;28229;48.856;9.088;2023-02-23T13:15:16;97588.94;;;13.48;67.15
42601;BME280;28229;48.856;9.088;2023-02-23T13:23:26;97588.41;;;13.46;68.86
42601;BME280;28229;48.856;9.088;2023-02-23T13:25:58;97588.81;;;13.38;67.58
42601;BME280;28229;48.856;9.088;2023-02-23T13:28:53;97580.22;;;13.30;68.03
42601;BME280;28229;48.856;9.088;2023-02-23T13:31:24;97584.63;;;13.25;68.70
42601;BME280;28229;48.856;9.088;2023-02-23T13:33:56;97588.22;;;13.19;69.30
42601;BME280;28229;48.856;9.088;2023-02-23T13:36:25;97583.16;;;13.12;69.57
42601;BME280;28229;48.856;9.088;2023-02-23T13:47:48;97585.88;;;13.00;69.47
42601;BME280;28229;48.856;9.088;2023-02-23T13:53:05;97583.78;;;12.85;69.17
42601;BME280;28229;48.856;9.088;2023-02-23T13:55:50;97588.25;;;12.85;71.16
42601;BME280;28229;48.856;9.088;2023-02-23T13:58:28;97584.13;;;12.89;71.34
42601;BME280;28229;48.856;9.088;2023-02-23T14:01:15;97579.63;;;12.89;71.54
42601;BME280;28229;48.856;9.088;2023-02-23T14:03:53;97578.56;;;12.90;71.73
42601;BME280;28229;48.856;9.088;2023-02-23T14:06:23;97574.34;;;12.89;70.46
42601;BME280;28229;48.856;9.088;2023-02-23T14:09:10;97575.47;;;12.93;72.04
42601;BME280;28229;48.856;9.088;2023-02-23T14:11:44;97582.91;;;12.97;71.72
42601;BME280;28229;48.856;9.088;2023-02-23T14:14:17;97574.50;;;13.00;71.60
42601;BME280;28229;48.856;9.088;2023-02-23T14:20:48;97568.72;;;13.03;71.56
42601;BME280;28229;48.856;9.088;2023-02-23T14:23:14;97569.84;;;13.07;71.52
42601;BME280;28229;48.856;9.088;2023-02-23T14:25:50;97570.41;;;13.09;70.62
42601;BME280;28229;48.856;9.088;2023-02-23T14:28:33;97566.72;;;13.10;69.65
42601;BME280;28229;48.856;9.088;2023-02-23T14:38:50;97572.66;;;12.83;69.70
42601;BME280;28229;48.856;9.088;2023-02-23T14:41:24;97572.28;;;12.74;69.30
42601;BME280;28229;48.856;9.088;2023-02-23T14:43:54;97578.25;;;12.70;68.79
42601;BME280;28229;48.856;9.088;2023-02-23T14:46:25;97579.78;;;12.66;69.49
42601;BME280;28229;48.856;9.088;2023-02-23T14:49:07;97576.41;;;12.53;69.77
42601;BME280;28229;48.856;9.088;2023-02-23T14:51:40;97572.91;;;12.48;70.69
42601;BME280;28229;48.856;9.088;2023-02-23T14:54:12;97580.00;;;12.47;69.94
42601;BME280;28229;48.856;9.088;2023-02-23T14:56:49;97569.84;;;12.39;71.19
42601;BME280;28229;48.856;9.088;2023-02-23T14:59:22;97571.66;;;12.38;71.35
42601;BME280;28229;48.856;9.088;2023-02-23T15:01:50;97577.91;;;12.32;74.25
42601;BME280;28229;48.856;9.088;2023-02-23T15:04:20;97576.44;;;12.25;76.97
42601;BME280;28229;48.856;9.088;2023-02-23T15:06:48;97578.34;;;12.12;80.47
42601;BME280;28229;48.856;9.088;2023-02-23T15:11:55;97574.56;;;12.08;84.86
42601;BME280;28229;48.856;9.088;2023-02-23T15:14:23;97564.00;;;12.08;86.12
42601;BME280;28229;48.856;9.088;2023-02-23T15:16:49;97566.06;;;12.06;85.86
42601;BME280;28229;48.856;9.088;2023-02-23T15:19:20;97577.09;;;12.03;87.39
42601;BME280;28229;48.856;9.088;2023-02-23T15:21:53;97578.69;;;12.04;87.39
42601;BME280;28229;48.856;9.088;2023-02-23T15:24:46;97573.88;;;12.01;87.92
42601;BME280;28229;48.856;9.088;2023-02-23T15:27:21;97578.13;;;12.02;86.59
42601;BME280;28229;48.856;9.088;2023-02-23T15:29:49;97575.50;;;12.02;86.23
42601;BME280;28229;48.856;9.088;2023-02-23T15:32:23;97573.66;;;12.03;86.88
42601;BME280;28229;48.856;9.088;2023-02-23T15:34:54;97570.47;;;12.00;86.52
42601;BME280;28229;48.856;9.088;2023-02-23T15:37:29;97574.38;;;11.98;86.79
42601;BME280;28229;48.856;9.088;2023-02-23T15:40:02;97570.34;;;11.95;87.45
42601;BME280;28229;48.856;9.088;2023-02-23T15:42:35;97572.44;;;11.93;88.07
42601;BME280;28229;48.856;9.088;2023-02-23T15:45:15;97577.94;;;11.92;88.19
42601;BME280;28229;48.856;9.088;2023-02-23T15:47:45;97579.00;;;11.91;88.46
42601;BME280;28229;48.856;9.088;2023-02-23T15:50:17;97577.72;;;11.93;87.98
42601;BME280;28229;48.856;9.088;2023-02-23T15:52:47;97576.09;;;11.92;87.95
42601;BME280;28229;48.856;9.088;2023-02-23T15:55:27;97581.63;;;11.91;87.84
42601;BME280;28229;48.856;9.088;2023-02-23T15:57:57;97579.41;;;11.88;88.39
42601;BME280;28229;48.856;9.088;2023-02-23T16:00:37;97578.75;;;11.80;88.81
42601;BME280;28229;48.856;9.088;2023-02-23T16:03:05;97587.34;;;11.76;89.21
42601;BME280;28229;48.856;9.088;2023-02-23T16:05:35;97588.25;;;11.81;88.71
42601;BME280;28229;48.856;9.088;2023-02-23T16:08:24;97584.38;;;11.72;89.93
42601;BME280;28229;48.856;9.088;2023-02-23T16:14:23;97586.22;;;11.60;91.08
42601;BME280;28229;48.856;9.088;2023-02-23T16:16:51;97588.53;;;11.56;91.59
42601;BME280;28229;48.856;9.088;2023-02-23T16:19:19;97595.06;;;11.54;91.94
42601;BME280;28229;48.856;9.088;2023-02-23T16:21:51;97581.34;;;11.52;91.98
42601;BME280;28229;48.856;9.088;2023-02-23T16:24:22;97592.31;;;11.49;92.63
42601;BME280;28229;48.856;9.088;2023-02-23T16:26:56;97585.22;;;11.49;93.25
42601;BME280;28229;48.856;9.088;2023-02-23T16:29:34;97585.69;;;11.34;94.25
42601;BME280;28229;48.856;9.088;2023-02-23T16:32:35;97581.81;;;11.25;94.08
42601;BME280;28229;48.856;9.088;2023-02-23T16:35:17;97579.41;;;11.23;94.16
42601;BME280;28229;48.856;9.088;2023-02-23T16:38:03;97582.28;;;11.22;93.98
42601;BME280;28229;48.856;9.088;2023-02-23T16:40:39;97579.53;;;11.17;94.11
42601;BME280;28229;48.856;9.088;2023-02-23T16:43:05;97579.63;;;11.10;94.37
42601;BME280;28229;48.856;9.088;2023-02-23T16:45:31;97584.44;;;11.13;94.18
42601;BME280;28229;48.856;9.088;2023-02-23T16:47:58;97578.84;;;11.10;94.45
42601;BME280;28229;48.856;9.088;2023-02-23T16:50:28;97588.69;;;11.02;94.45
42601;BME280;28229;48.856;9.088;2023-02-23T16:52:55;97587.53;;;10.98;95.28
42601;BME280;28229;48.856;9.088;2023-02-23T16:55:24;97593.25;;;10.95;94.82
42601;BME280;28229;48.856;9.088;2023-02-23T16:57:57;97589.81;;;10.95;94.24
42601;BME280;28229;48.856;9.088;2023-02-23T17:00:33;97591.06;;;10.92;94.24